sensor_id;sensor_type;location;lat;lon;timestamp;temperature;humidity
68658;DHT22;55639;53.480;-2.228;2022-07-04T00:00:07;25.60;38.80
68658;DHT22;55639;53.480;-2.228;2022-07-04T00:02:33;25.60;38.80
68658;DHT22;55639;53.480;-2.228;2022-07-04T00:04:59;25.60;38.80
68658;DHT22;55639;53.480;-2.228;2022-07-04T00:07:24;25.60;38.80
68658;DHT22;55639;53.480;-2.228;2022-07-04T00:09:50;25.60;38.80
68658;DHT22;55639;53.480;-2.228;2022-07-04T00:12:16;25.60;38.80
68658;DHT22;55639;53.480;-2.228;2022-07-04T00:14:41;25.50;38.80
68658;DHT22;55639;53.480;-2.228;2022-07-04T00:17:07;25.50;38.80
68658;DHT22;55639;53.480;-2.228;2022-07-04T00:19:33;25.60;38.80
68658;DHT22;55639;53.480;-2.228;2022-07-04T00:21:59;25.60;38.80
68658;DHT22;55639;53.480;-2.228;2022-07-04T00:24:25;25.60;38.80
68658;DHT22;55639;53.480;-2.228;2022-07-04T00:26:50;25.50;38.80
68658;DHT22;55639;53.480;-2.228;2022-07-04T00:29:16;25.50;38.80
68658;DHT22;55639;53.480;-2.228;2022-07-04T00:31:42;25.50;38.80
68658;DHT22;55639;53.480;-2.228;2022-07-04T00:34:08;25.60;38.80
68658;DHT22;55639;53.480;-2.228;2022-07-04T00:36:34;25.50;38.80
68658;DHT22;55639;53.480;-2.228;2022-07-04T00:38:59;25.50;38.80
68658;DHT22;55639;53.480;-2.228;2022-07-04T00:41:25;25.50;38.80
68658;DHT22;55639;53.480;-2.228;2022-07-04T00:44:05;25.50;38.80
68658;DHT22;55639;53.480;-2.228;2022-07-04T00:46:31;25.50;38.80
68658;DHT22;55639;53.480;-2.228;2022-07-04T00:48:58;25.50;38.80
68658;DHT22;55639;53.480;-2.228;2022-07-04T00:51:24;25.50;38.80
68658;DHT22;55639;53.480;-2.228;2022-07-04T00:53:54;25.50;38.80
68658;DHT22;55639;53.480;-2.228;2022-07-04T00:56:22;25.50;38.80
68658;DHT22;55639;53.480;-2.228;2022-07-04T00:58:48;25.50;38.80
68658;DHT22;55639;53.480;-2.228;2022-07-04T01:01:14;25.50;38.80
68658;DHT22;55639;53.480;-2.228;2022-07-04T01:03:40;25.50;38.80
68658;DHT22;55639;53.480;-2.228;2022-07-04T01:06:06;25.50;38.80
68658;DHT22;55639;53.480;-2.228;2022-07-04T01:08:37;25.50;38.90
68658;DHT22;55639;53.480;-2.228;2022-07-04T01:11:04;25.50;38.90
68658;DHT22;55639;53.480;-2.228;2022-07-04T01:13:30;25.50;38.80
68658;DHT22;55639;53.480;-2.228;2022-07-04T01:15:56;25.50;38.80
68658;DHT22;55639;53.480;-2.228;2022-07-04T01:18:21;25.50;38.90
68658;DHT22;55639;53.480;-2.228;2022-07-04T01:20:47;25.50;38.90
68658;DHT22;55639;53.480;-2.228;2022-07-04T01:23:13;25.50;39.40
68658;DHT22;55639;53.480;-2.228;2022-07-04T01:25:39;25.50;38.90
68658;DHT22;55639;53.480;-2.228;2022-07-04T01:28:04;25.50;38.90
68658;DHT22;55639;53.480;-2.228;2022-07-04T01:30:32;25.50;38.90
68658;DHT22;55639;53.480;-2.228;2022-07-04T01:32:58;25.50;38.90
68658;DHT22;55639;53.480;-2.228;2022-07-04T01:35:24;25.40;38.80
68658;DHT22;55639;53.480;-2.228;2022-07-04T01:37:50;25.40;38.80
68658;DHT22;55639;53.480;-2.228;2022-07-04T01:40:16;25.40;38.80
68658;DHT22;55639;53.480;-2.228;2022-07-04T01:42:42;25.40;38.80
68658;DHT22;55639;53.480;-2.228;2022-07-04T01:45:09;25.40;38.80
68658;DHT22;55639;53.480;-2.228;2022-07-04T01:47:36;25.40;38.80
68658;DHT22;55639;53.480;-2.228;2022-07-04T01:50:03;25.40;38.80
68658;DHT22;55639;53.480;-2.228;2022-07-04T01:52:29;25.40;38.80
68658;DHT22;55639;53.480;-2.228;2022-07-04T01:54:54;25.40;38.80
68658;DHT22;55639;53.480;-2.228;2022-07-04T01:57:20;25.40;38.90
68658;DHT22;55639;53.480;-2.228;2022-07-04T01:59:46;25.40;38.80
68658;DHT22;55639;53.480;-2.228;2022-07-04T02:02:30;25.40;38.80
68658;DHT22;55639;53.480;-2.228;2022-07-04T02:04:56;25.40;38.90
68658;DHT22;55639;53.480;-2.228;2022-07-04T02:07:21;25.40;38.90
68658;DHT22;55639;53.480;-2.228;2022-07-04T02:09:47;25.40;38.90
68658;DHT22;55639;53.480;-2.228;2022-07-04T02:12:13;25.40;38.90
68658;DHT22;55639;53.480;-2.228;2022-07-04T02:14:57;25.40;38.90
68658;DHT22;55639;53.480;-2.228;2022-07-04T02:17:23;25.40;38.90
68658;DHT22;55639;53.480;-2.228;2022-07-04T02:19:48;25.40;38.90
68658;DHT22;55639;53.480;-2.228;2022-07-04T02:22:15;25.40;38.90
68658;DHT22;55639;53.480;-2.228;2022-07-04T02:24:41;25.40;38.90
68658;DHT22;55639;53.480;-2.228;2022-07-04T02:27:07;25.40;38.90
68658;DHT22;55639;53.480;-2.228;2022-07-04T02:29:32;25.40;38.90
68658;DHT22;55639;53.480;-2.228;2022-07-04T02:31:58;25.30;38.90
68658;DHT22;55639;53.480;-2.228;2022-07-04T02:34:24;25.40;38.90
68658;DHT22;55639;53.480;-2.228;2022-07-04T02:36:49;25.30;38.90
68658;DHT22;55639;53.480;-2.228;2022-07-04T02:39:15;25.40;38.90
68658;DHT22;55639;53.480;-2.228;2022-07-04T02:41:41;25.30;38.90
68658;DHT22;55639;53.480;-2.228;2022-07-04T02:44:07;25.40;38.90
68658;DHT22;55639;53.480;-2.228;2022-07-04T02:46:32;25.30;38.90
68658;DHT22;55639;53.480;-2.228;2022-07-04T02:48:59;25.30;38.90
68658;DHT22;55639;53.480;-2.228;2022-07-04T02:51:25;25.30;38.90
68658;DHT22;55639;53.480;-2.228;2022-07-04T02:53:51;25.30;38.90
68658;DHT22;55639;53.480;-2.228;2022-07-04T02:56:17;25.30;38.90
68658;DHT22;55639;53.480;-2.228;2022-07-04T02:58:42;25.30;38.90
68658;DHT22;55639;53.480;-2.228;2022-07-04T03:01:08;25.30;38.90
68658;DHT22;55639;53.480;-2.228;2022-07-04T03:03:34;25.30;38.90
68658;DHT22;55639;53.480;-2.228;2022-07-04T03:06:00;25.30;38.90
68658;DHT22;55639;53.480;-2.228;2022-07-04T03:08:26;25.30;38.90
68658;DHT22;55639;53.480;-2.228;2022-07-04T03:10:52;25.30;38.90
68658;DHT22;55639;53.480;-2.228;2022-07-04T03:13:18;25.30;38.90
68658;DHT22;55639;53.480;-2.228;2022-07-04T03:15:44;25.30;38.90
68658;DHT22;55639;53.480;-2.228;2022-07-04T03:18:11;25.30;38.90
68658;DHT22;55639;53.480;-2.228;2022-07-04T03:20:36;25.30;38.90
68658;DHT22;55639;53.480;-2.228;2022-07-04T03:23:02;25.30;38.90
68658;DHT22;55639;53.480;-2.228;2022-07-04T03:25:28;25.30;38.90
68658;DHT22;55639;53.480;-2.228;2022-07-04T03:27:54;25.30;38.90
68658;DHT22;55639;53.480;-2.228;2022-07-04T03:30:19;25.30;38.90
68658;DHT22;55639;53.480;-2.228;2022-07-04T03:32:45;25.30;38.90
68658;DHT22;55639;53.480;-2.228;2022-07-04T03:35:11;25.30;38.90
68658;DHT22;55639;53.480;-2.228;2022-07-04T03:37:36;25.20;38.90
68658;DHT22;55639;53.480;-2.228;2022-07-04T03:40:02;25.30;38.90
68658;DHT22;55639;53.480;-2.228;2022-07-04T03:42:28;25.30;38.90
68658;DHT22;55639;53.480;-2.228;2022-07-04T03:44:54;25.30;39.00
68658;DHT22;55639;53.480;-2.228;2022-07-04T03:47:19;25.30;38.90
68658;DHT22;55639;53.480;-2.228;2022-07-04T03:49:45;25.30;38.90
68658;DHT22;55639;53.480;-2.228;2022-07-04T03:52:11;25.20;38.90
68658;DHT22;55639;53.480;-2.228;2022-07-04T03:54:36;25.20;38.90
68658;DHT22;55639;53.480;-2.228;2022-07-04T03:57:02;25.20;38.90
68658;DHT22;55639;53.480;-2.228;2022-07-04T03:59:28;25.20;38.90
68658;DHT22;55639;53.480;-2.228;2022-07-04T04:01:53;25.20;38.90
68658;DHT22;55639;53.480;-2.228;2022-07-04T04:04:19;25.20;38.90
68658;DHT22;55639;53.480;-2.228;2022-07-04T04:07:03;25.20;38.90
68658;DHT22;55639;53.480;-2.228;2022-07-04T04:09:29;25.20;38.90
68658;DHT22;55639;53.480;-2.228;2022-07-04T04:11:55;25.20;38.90
68658;DHT22;55639;53.480;-2.228;2022-07-04T04:14:20;25.20;38.90
68658;DHT22;55639;53.480;-2.228;2022-07-04T04:16:46;25.20;38.90
68658;DHT22;55639;53.480;-2.228;2022-07-04T04:19:12;25.20;38.90
68658;DHT22;55639;53.480;-2.228;2022-07-04T04:21:38;25.20;38.90
68658;DHT22;55639;53.480;-2.228;2022-07-04T04:24:04;25.20;38.90
68658;DHT22;55639;53.480;-2.228;2022-07-04T04:26:30;25.20;38.90
68658;DHT22;55639;53.480;-2.228;2022-07-04T04:28:56;25.20;38.90
68658;DHT22;55639;53.480;-2.228;2022-07-04T04:31:21;25.20;38.90
68658;DHT22;55639;53.480;-2.228;2022-07-04T04:33:47;25.20;38.90
68658;DHT22;55639;53.480;-2.228;2022-07-04T04:36:13;25.20;38.90
68658;DHT22;55639;53.480;-2.228;2022-07-04T04:38:38;25.20;38.90
68658;DHT22;55639;53.480;-2.228;2022-07-04T04:41:04;25.20;38.90
68658;DHT22;55639;53.480;-2.228;2022-07-04T04:43:30;25.20;39.00
68658;DHT22;55639;53.480;-2.228;2022-07-04T04:45:55;25.20;39.00
68658;DHT22;55639;53.480;-2.228;2022-07-04T04:48:21;25.20;38.90
68658;DHT22;55639;53.480;-2.228;2022-07-04T04:50:47;25.20;38.90
68658;DHT22;55639;53.480;-2.228;2022-07-04T04:53:12;25.20;38.90
68658;DHT22;55639;53.480;-2.228;2022-07-04T04:55:39;25.20;39.00
68658;DHT22;55639;53.480;-2.228;2022-07-04T04:58:05;25.20;39.00
68658;DHT22;55639;53.480;-2.228;2022-07-04T05:00:31;25.20;39.00
68658;DHT22;55639;53.480;-2.228;2022-07-04T05:02:56;25.10;38.90
68658;DHT22;55639;53.480;-2.228;2022-07-04T05:05:22;25.20;39.00
68658;DHT22;55639;53.480;-2.228;2022-07-04T05:07:48;25.20;39.00
68658;DHT22;55639;53.480;-2.228;2022-07-04T05:10:14;25.10;38.90
68658;DHT22;55639;53.480;-2.228;2022-07-04T05:12:42;25.20;39.00
68658;DHT22;55639;53.480;-2.228;2022-07-04T05:15:09;25.20;39.00
68658;DHT22;55639;53.480;-2.228;2022-07-04T05:17:35;25.10;38.90
68658;DHT22;55639;53.480;-2.228;2022-07-04T05:20:01;25.20;39.00
68658;DHT22;55639;53.480;-2.228;2022-07-04T05:22:27;25.20;39.00
68658;DHT22;55639;53.480;-2.228;2022-07-04T05:24:52;25.20;39.00
68658;DHT22;55639;53.480;-2.228;2022-07-04T05:27:18;25.10;39.00
68658;DHT22;55639;53.480;-2.228;2022-07-04T05:29:43;25.20;39.00
68658;DHT22;55639;53.480;-2.228;2022-07-04T05:32:09;25.10;39.00
68658;DHT22;55639;53.480;-2.228;2022-07-04T05:34:35;25.10;38.90
68658;DHT22;55639;53.480;-2.228;2022-07-04T05:37:02;25.10;38.90
68658;DHT22;55639;53.480;-2.228;2022-07-04T05:39:28;25.10;38.90
68658;DHT22;55639;53.480;-2.228;2022-07-04T05:41:54;25.10;39.00
68658;DHT22;55639;53.480;-2.228;2022-07-04T05:44:19;25.10;38.90
68658;DHT22;55639;53.480;-2.228;2022-07-04T05:46:45;25.10;38.90
68658;DHT22;55639;53.480;-2.228;2022-07-04T05:49:11;25.10;38.90
68658;DHT22;55639;53.480;-2.228;2022-07-04T05:51:36;25.10;38.90
68658;DHT22;55639;53.480;-2.228;2022-07-04T05:54:02;25.10;39.00
68658;DHT22;55639;53.480;-2.228;2022-07-04T05:56:28;25.10;38.90
68658;DHT22;55639;53.480;-2.228;2022-07-04T05:58:53;25.10;39.00
68658;DHT22;55639;53.480;-2.228;2022-07-04T06:01:19;25.10;38.90
68658;DHT22;55639;53.480;-2.228;2022-07-04T06:03:45;25.10;39.00
68658;DHT22;55639;53.480;-2.228;2022-07-04T06:06:10;25.10;38.90
68658;DHT22;55639;53.480;-2.228;2022-07-04T06:08:36;25.10;38.90
68658;DHT22;55639;53.480;-2.228;2022-07-04T06:11:03;25.10;39.00
68658;DHT22;55639;53.480;-2.228;2022-07-04T06:13:29;25.10;38.90
68658;DHT22;55639;53.480;-2.228;2022-07-04T06:15:55;25.10;39.00
68658;DHT22;55639;53.480;-2.228;2022-07-04T06:18:21;25.10;39.00
68658;DHT22;55639;53.480;-2.228;2022-07-04T06:20:46;25.10;38.90
68658;DHT22;55639;53.480;-2.228;2022-07-04T06:23:12;25.10;39.00
68658;DHT22;55639;53.480;-2.228;2022-07-04T06:25:38;25.10;39.00
68658;DHT22;55639;53.480;-2.228;2022-07-04T06:28:03;25.10;39.00
68658;DHT22;55639;53.480;-2.228;2022-07-04T06:30:29;25.10;39.00
68658;DHT22;55639;53.480;-2.228;2022-07-04T06:32:56;25.10;39.00
68658;DHT22;55639;53.480;-2.228;2022-07-04T06:35:28;25.00;38.90
68658;DHT22;55639;53.480;-2.228;2022-07-04T06:38:15;25.10;38.90
68658;DHT22;55639;53.480;-2.228;2022-07-04T06:40:41;25.10;39.00
68658;DHT22;55639;53.480;-2.228;2022-07-04T06:43:07;25.00;38.90
68658;DHT22;55639;53.480;-2.228;2022-07-04T06:45:33;25.10;39.00
68658;DHT22;55639;53.480;-2.228;2022-07-04T06:48:00;25.10;39.00
68658;DHT22;55639;53.480;-2.228;2022-07-04T06:50:26;25.10;39.00
68658;DHT22;55639;53.480;-2.228;2022-07-04T06:52:52;25.10;39.00
68658;DHT22;55639;53.480;-2.228;2022-07-04T06:55:18;25.10;39.00
68658;DHT22;55639;53.480;-2.228;2022-07-04T06:57:43;25.00;38.90
68658;DHT22;55639;53.480;-2.228;2022-07-04T07:00:10;25.10;39.00
68658;DHT22;55639;53.480;-2.228;2022-07-04T07:02:37;25.10;39.00
68658;DHT22;55639;53.480;-2.228;2022-07-04T07:05:04;25.10;39.00
68658;DHT22;55639;53.480;-2.228;2022-07-04T07:07:30;25.10;39.00
68658;DHT22;55639;53.480;-2.228;2022-07-04T07:09:56;25.00;38.90
68658;DHT22;55639;53.480;-2.228;2022-07-04T07:12:22;25.00;38.90
68658;DHT22;55639;53.480;-2.228;2022-07-04T07:14:51;25.10;39.00
68658;DHT22;55639;53.480;-2.228;2022-07-04T07:17:17;25.00;38.90
68658;DHT22;55639;53.480;-2.228;2022-07-04T07:19:43;25.00;38.90
68658;DHT22;55639;53.480;-2.228;2022-07-04T07:22:10;25.00;38.90
68658;DHT22;55639;53.480;-2.228;2022-07-04T07:24:36;25.00;38.90
68658;DHT22;55639;53.480;-2.228;2022-07-04T07:27:02;25.00;38.90
68658;DHT22;55639;53.480;-2.228;2022-07-04T07:29:28;25.00;38.90
68658;DHT22;55639;53.480;-2.228;2022-07-04T07:31:54;25.00;38.90
68658;DHT22;55639;53.480;-2.228;2022-07-04T07:34:19;25.00;38.90
68658;DHT22;55639;53.480;-2.228;2022-07-04T07:36:45;25.00;38.90
68658;DHT22;55639;53.480;-2.228;2022-07-04T07:39:11;25.00;39.00
68658;DHT22;55639;53.480;-2.228;2022-07-04T07:41:36;25.00;38.90
68658;DHT22;55639;53.480;-2.228;2022-07-04T07:44:02;25.00;38.90
68658;DHT22;55639;53.480;-2.228;2022-07-04T07:46:28;25.00;38.90
68658;DHT22;55639;53.480;-2.228;2022-07-04T07:48:54;25.00;38.90
68658;DHT22;55639;53.480;-2.228;2022-07-04T07:51:19;25.00;38.90
68658;DHT22;55639;53.480;-2.228;2022-07-04T07:53:45;25.00;38.90
68658;DHT22;55639;53.480;-2.228;2022-07-04T07:56:10;25.00;38.90
68658;DHT22;55639;53.480;-2.228;2022-07-04T07:58:36;25.00;38.90
68658;DHT22;55639;53.480;-2.228;2022-07-04T08:01:02;25.00;38.90
68658;DHT22;55639;53.480;-2.228;2022-07-04T08:03:28;25.00;38.90
68658;DHT22;55639;53.480;-2.228;2022-07-04T08:06:13;25.00;38.90
68658;DHT22;55639;53.480;-2.228;2022-07-04T08:08:40;25.00;38.90
68658;DHT22;55639;53.480;-2.228;2022-07-04T08:11:06;25.00;38.90
68658;DHT22;55639;53.480;-2.228;2022-07-04T08:13:32;25.00;38.90
68658;DHT22;55639;53.480;-2.228;2022-07-04T08:15:57;25.00;39.40
68658;DHT22;55639;53.480;-2.228;2022-07-04T08:18:23;25.00;39.60
68658;DHT22;55639;53.480;-2.228;2022-07-04T08:20:50;25.00;39.70
68658;DHT22;55639;53.480;-2.228;2022-07-04T08:23:16;25.10;39.80
68658;DHT22;55639;53.480;-2.228;2022-07-04T08:25:42;25.10;39.90
68658;DHT22;55639;53.480;-2.228;2022-07-04T08:28:08;25.10;40.00
68658;DHT22;55639;53.480;-2.228;2022-07-04T08:30:33;25.10;40.10
68658;DHT22;55639;53.480;-2.228;2022-07-04T08:32:59;25.10;40.10
68658;DHT22;55639;53.480;-2.228;2022-07-04T08:35:25;25.10;40.20
68658;DHT22;55639;53.480;-2.228;2022-07-04T08:37:51;25.10;40.30
68658;DHT22;55639;53.480;-2.228;2022-07-04T08:40:22;25.10;40.40
68658;DHT22;55639;53.480;-2.228;2022-07-04T08:42:49;25.10;40.40
68658;DHT22;55639;53.480;-2.228;2022-07-04T08:45:16;25.10;40.40
68658;DHT22;55639;53.480;-2.228;2022-07-04T08:47:43;25.10;40.40
68658;DHT22;55639;53.480;-2.228;2022-07-04T08:50:15;25.10;40.40
68658;DHT22;55639;53.480;-2.228;2022-07-04T08:52:43;25.20;40.60
68658;DHT22;55639;53.480;-2.228;2022-07-04T08:55:12;25.20;40.60
68658;DHT22;55639;53.480;-2.228;2022-07-04T08:57:58;25.20;40.70
68658;DHT22;55639;53.480;-2.228;2022-07-04T09:00:43;25.20;40.70
68658;DHT22;55639;53.480;-2.228;2022-07-04T09:03:09;25.20;40.80
68658;DHT22;55639;53.480;-2.228;2022-07-04T09:05:35;25.20;40.80
68658;DHT22;55639;53.480;-2.228;2022-07-04T09:08:03;25.20;40.80
68658;DHT22;55639;53.480;-2.228;2022-07-04T09:10:29;25.20;40.80
68658;DHT22;55639;53.480;-2.228;2022-07-04T09:12:55;25.20;41.40
68658;DHT22;55639;53.480;-2.228;2022-07-04T09:15:21;25.20;40.80
68658;DHT22;55639;53.480;-2.228;2022-07-04T09:17:47;25.20;40.80
68658;DHT22;55639;53.480;-2.228;2022-07-04T09:20:21;25.20;40.80
68658;DHT22;55639;53.480;-2.228;2022-07-04T09:22:50;25.20;40.80
68658;DHT22;55639;53.480;-2.228;2022-07-04T09:25:17;25.20;40.80
68658;DHT22;55639;53.480;-2.228;2022-07-04T09:27:48;25.30;40.90
68658;DHT22;55639;53.480;-2.228;2022-07-04T09:30:16;25.30;40.90
68658;DHT22;55639;53.480;-2.228;2022-07-04T09:32:47;25.20;40.80
68658;DHT22;55639;53.480;-2.228;2022-07-04T09:35:17;25.30;40.90
68658;DHT22;55639;53.480;-2.228;2022-07-04T09:37:46;25.30;40.90
68658;DHT22;55639;53.480;-2.228;2022-07-04T09:40:31;25.30;40.90
68658;DHT22;55639;53.480;-2.228;2022-07-04T09:42:59;25.30;40.90
68658;DHT22;55639;53.480;-2.228;2022-07-04T09:45:25;25.30;40.90
68658;DHT22;55639;53.480;-2.228;2022-07-04T09:47:56;25.30;40.90
68658;DHT22;55639;53.480;-2.228;2022-07-04T09:50:23;25.30;40.90
68658;DHT22;55639;53.480;-2.228;2022-07-04T09:52:58;25.30;40.90
68658;DHT22;55639;53.480;-2.228;2022-07-04T09:55:32;25.30;40.90
68658;DHT22;55639;53.480;-2.228;2022-07-04T09:58:12;25.40;41.00
68658;DHT22;55639;53.480;-2.228;2022-07-04T10:00:45;25.40;41.00
68658;DHT22;55639;53.480;-2.228;2022-07-04T10:03:21;25.40;41.00
68658;DHT22;55639;53.480;-2.228;2022-07-04T10:08:33;25.40;41.00
68658;DHT22;55639;53.480;-2.228;2022-07-04T10:11:01;25.40;40.90
68658;DHT22;55639;53.480;-2.228;2022-07-04T10:13:27;25.40;40.90
68658;DHT22;55639;53.480;-2.228;2022-07-04T10:15:53;25.40;40.90
68658;DHT22;55639;53.480;-2.228;2022-07-04T10:18:21;25.40;40.80
68658;DHT22;55639;53.480;-2.228;2022-07-04T10:20:48;25.40;40.80
68658;DHT22;55639;53.480;-2.228;2022-07-04T10:23:18;25.40;40.70
68658;DHT22;55639;53.480;-2.228;2022-07-04T10:25:48;25.50;40.80
68658;DHT22;55639;53.480;-2.228;2022-07-04T10:28:15;25.50;40.80
68658;DHT22;55639;53.480;-2.228;2022-07-04T10:30:42;25.50;40.80
68658;DHT22;55639;53.480;-2.228;2022-07-04T10:33:09;25.50;40.90
68658;DHT22;55639;53.480;-2.228;2022-07-04T10:38:33;25.50;40.90
68658;DHT22;55639;53.480;-2.228;2022-07-04T10:41:06;25.50;41.00
68658;DHT22;55639;53.480;-2.228;2022-07-04T10:49:04;25.50;41.00
68658;DHT22;55639;53.480;-2.228;2022-07-04T10:54:33;25.60;41.10
68658;DHT22;55639;53.480;-2.228;2022-07-04T10:57:19;25.50;41.00
68658;DHT22;55639;53.480;-2.228;2022-07-04T11:02:31;25.50;41.00
68658;DHT22;55639;53.480;-2.228;2022-07-04T11:05:01;25.50;41.00
68658;DHT22;55639;53.480;-2.228;2022-07-04T11:20:26;25.60;41.10
68658;DHT22;55639;53.480;-2.228;2022-07-04T11:22:51;25.50;41.10
68658;DHT22;55639;53.480;-2.228;2022-07-04T11:25:17;25.60;41.10
68658;DHT22;55639;53.480;-2.228;2022-07-04T11:27:43;25.60;41.10
68658;DHT22;55639;53.480;-2.228;2022-07-04T11:30:10;25.60;41.10
68658;DHT22;55639;53.480;-2.228;2022-07-04T11:32:37;25.60;41.10
68658;DHT22;55639;53.480;-2.228;2022-07-04T11:35:04;25.60;41.10
68658;DHT22;55639;53.480;-2.228;2022-07-04T11:37:31;25.60;41.10
68658;DHT22;55639;53.480;-2.228;2022-07-04T11:39:57;25.60;41.20
68658;DHT22;55639;53.480;-2.228;2022-07-04T11:43:04;25.60;41.20
68658;DHT22;55639;53.480;-2.228;2022-07-04T11:45:48;25.60;41.20
68658;DHT22;55639;53.480;-2.228;2022-07-04T11:48:25;25.60;41.20
68658;DHT22;55639;53.480;-2.228;2022-07-04T11:50:51;25.60;41.30
68658;DHT22;55639;53.480;-2.228;2022-07-04T11:53:17;25.60;41.30
68658;DHT22;55639;53.480;-2.228;2022-07-04T11:55:57;25.60;41.20
68658;DHT22;55639;53.480;-2.228;2022-07-04T11:58:24;25.60;41.20
68658;DHT22;55639;53.480;-2.228;2022-07-04T12:00:49;25.60;41.20
68658;DHT22;55639;53.480;-2.228;2022-07-04T12:03:15;25.60;41.20
68658;DHT22;55639;53.480;-2.228;2022-07-04T12:05:41;25.60;41.20
68658;DHT22;55639;53.480;-2.228;2022-07-04T12:08:09;25.70;41.20
68658;DHT22;55639;53.480;-2.228;2022-07-04T12:10:35;25.70;41.30
68658;DHT22;55639;53.480;-2.228;2022-07-04T12:13:07;25.70;41.40
68658;DHT22;55639;53.480;-2.228;2022-07-04T12:15:47;25.70;41.30
68658;DHT22;55639;53.480;-2.228;2022-07-04T12:18:25;25.70;41.10
68658;DHT22;55639;53.480;-2.228;2022-07-04T12:20:53;25.70;41.10
68658;DHT22;55639;53.480;-2.228;2022-07-04T12:23:21;25.70;41.00
68658;DHT22;55639;53.480;-2.228;2022-07-04T12:25:49;25.70;40.90
68658;DHT22;55639;53.480;-2.228;2022-07-04T12:28:16;25.70;40.80
68658;DHT22;55639;53.480;-2.228;2022-07-04T12:30:56;25.70;40.70
68658;DHT22;55639;53.480;-2.228;2022-07-04T12:33:26;25.70;40.60
68658;DHT22;55639;53.480;-2.228;2022-07-04T12:35:55;25.70;40.60
68658;DHT22;55639;53.480;-2.228;2022-07-04T12:43:18;25.70;41.00
68658;DHT22;55639;53.480;-2.228;2022-07-04T12:45:55;25.70;41.00
68658;DHT22;55639;53.480;-2.228;2022-07-04T12:48:27;25.70;41.00
68658;DHT22;55639;53.480;-2.228;2022-07-04T12:50:54;25.70;41.00
68658;DHT22;55639;53.480;-2.228;2022-07-04T12:53:21;25.70;41.00
68658;DHT22;55639;53.480;-2.228;2022-07-04T12:55:48;25.70;41.00
68658;DHT22;55639;53.480;-2.228;2022-07-04T12:58:14;25.70;41.10
68658;DHT22;55639;53.480;-2.228;2022-07-04T13:00:41;25.70;41.10
68658;DHT22;55639;53.480;-2.228;2022-07-04T13:03:07;25.70;41.10
68658;DHT22;55639;53.480;-2.228;2022-07-04T13:05:34;25.70;41.10
68658;DHT22;55639;53.480;-2.228;2022-07-04T13:08:01;25.70;41.10
68658;DHT22;55639;53.480;-2.228;2022-07-04T13:10:27;25.70;41.10
68658;DHT22;55639;53.480;-2.228;2022-07-04T13:12:53;25.70;41.10
68658;DHT22;55639;53.480;-2.228;2022-07-04T13:15:18;25.70;41.10
68658;DHT22;55639;53.480;-2.228;2022-07-04T13:17:44;25.70;41.10
68658;DHT22;55639;53.480;-2.228;2022-07-04T13:20:10;25.70;41.10
68658;DHT22;55639;53.480;-2.228;2022-07-04T13:22:38;25.70;41.00
68658;DHT22;55639;53.480;-2.228;2022-07-04T13:25:04;25.70;41.00
68658;DHT22;55639;53.480;-2.228;2022-07-04T13:27:31;25.80;41.00
68658;DHT22;55639;53.480;-2.228;2022-07-04T13:29:57;25.80;41.00
68658;DHT22;55639;53.480;-2.228;2022-07-04T13:32:23;25.80;40.90
68658;DHT22;55639;53.480;-2.228;2022-07-04T13:34:49;25.80;40.90
68658;DHT22;55639;53.480;-2.228;2022-07-04T13:37:16;25.80;40.80
68658;DHT22;55639;53.480;-2.228;2022-07-04T13:39:43;25.80;40.80
68658;DHT22;55639;53.480;-2.228;2022-07-04T13:42:08;25.80;40.80
68658;DHT22;55639;53.480;-2.228;2022-07-04T13:44:34;25.90;40.80
68658;DHT22;55639;53.480;-2.228;2022-07-04T13:47:00;25.80;40.70
68658;DHT22;55639;53.480;-2.228;2022-07-04T13:49:26;25.90;40.70
68658;DHT22;55639;53.480;-2.228;2022-07-04T13:51:52;25.90;40.70
68658;DHT22;55639;53.480;-2.228;2022-07-04T13:54:18;25.90;40.60
68658;DHT22;55639;53.480;-2.228;2022-07-04T13:56:44;25.90;40.60
68658;DHT22;55639;53.480;-2.228;2022-07-04T13:59:10;25.90;40.60
68658;DHT22;55639;53.480;-2.228;2022-07-04T14:01:36;25.90;40.50
68658;DHT22;55639;53.480;-2.228;2022-07-04T14:04:02;25.90;40.50
68658;DHT22;55639;53.480;-2.228;2022-07-04T14:06:28;26.00;40.60
68658;DHT22;55639;53.480;-2.228;2022-07-04T14:08:54;26.00;40.50
68658;DHT22;55639;53.480;-2.228;2022-07-04T14:11:20;26.00;40.50
68658;DHT22;55639;53.480;-2.228;2022-07-04T14:13:45;26.10;40.40
68658;DHT22;55639;53.480;-2.228;2022-07-04T14:16:11;26.00;40.00
68658;DHT22;55639;53.480;-2.228;2022-07-04T14:18:37;26.00;39.70
68658;DHT22;55639;53.480;-2.228;2022-07-04T14:21:03;25.90;38.40
68658;DHT22;55639;53.480;-2.228;2022-07-04T14:23:29;25.90;37.60
68658;DHT22;55639;53.480;-2.228;2022-07-04T14:26:08;25.90;37.60
68658;DHT22;55639;53.480;-2.228;2022-07-04T14:28:34;25.90;37.20
68658;DHT22;55639;53.480;-2.228;2022-07-04T14:31:00;25.90;37.10
68658;DHT22;55639;53.480;-2.228;2022-07-04T14:33:26;25.90;36.80
68658;DHT22;55639;53.480;-2.228;2022-07-04T14:35:52;25.90;36.70
68658;DHT22;55639;53.480;-2.228;2022-07-04T14:38:18;25.90;36.40
68658;DHT22;55639;53.480;-2.228;2022-07-04T14:40:44;25.90;36.20
68658;DHT22;55639;53.480;-2.228;2022-07-04T14:43:12;25.80;36.20
68658;DHT22;55639;53.480;-2.228;2022-07-04T14:45:38;25.80;35.40
68658;DHT22;55639;53.480;-2.228;2022-07-04T14:48:05;25.80;35.50
68658;DHT22;55639;53.480;-2.228;2022-07-04T14:50:32;25.80;35.40
68658;DHT22;55639;53.480;-2.228;2022-07-04T14:52:57;25.80;35.40
68658;DHT22;55639;53.480;-2.228;2022-07-04T14:55:23;25.80;35.40
68658;DHT22;55639;53.480;-2.228;2022-07-04T14:57:49;25.80;35.50
68658;DHT22;55639;53.480;-2.228;2022-07-04T15:00:15;25.80;35.20
68658;DHT22;55639;53.480;-2.228;2022-07-04T15:02:41;25.80;35.30
68658;DHT22;55639;53.480;-2.228;2022-07-04T15:05:07;25.80;35.00
68658;DHT22;55639;53.480;-2.228;2022-07-04T15:07:33;25.80;35.00
68658;DHT22;55639;53.480;-2.228;2022-07-04T15:10:00;25.80;34.70
68658;DHT22;55639;53.480;-2.228;2022-07-04T15:12:25;25.80;34.90
68658;DHT22;55639;53.480;-2.228;2022-07-04T15:14:51;25.80;35.00
68658;DHT22;55639;53.480;-2.228;2022-07-04T15:17:17;25.80;35.10
68658;DHT22;55639;53.480;-2.228;2022-07-04T15:19:43;25.80;35.30
68658;DHT22;55639;53.480;-2.228;2022-07-04T15:22:27;25.80;35.60
68658;DHT22;55639;53.480;-2.228;2022-07-04T15:25:11;25.80;35.70
68658;DHT22;55639;53.480;-2.228;2022-07-04T15:27:37;25.80;35.90
68658;DHT22;55639;53.480;-2.228;2022-07-04T15:30:03;25.80;36.10
68658;DHT22;55639;53.480;-2.228;2022-07-04T15:32:29;25.90;36.20
68658;DHT22;55639;53.480;-2.228;2022-07-04T15:34:54;25.90;36.40
68658;DHT22;55639;53.480;-2.228;2022-07-04T15:37:20;25.90;36.40
68658;DHT22;55639;53.480;-2.228;2022-07-04T15:39:46;25.90;36.50
68658;DHT22;55639;53.480;-2.228;2022-07-04T15:42:11;25.90;36.60
68658;DHT22;55639;53.480;-2.228;2022-07-04T15:44:37;25.90;36.70
68658;DHT22;55639;53.480;-2.228;2022-07-04T15:47:03;25.90;36.80
68658;DHT22;55639;53.480;-2.228;2022-07-04T15:49:36;26.00;37.00